Time;durP1;ratioP1;P1;durP2;ratioP2;P2;SDS_P1;SDS_P2;PMS_P1;PMS_P2;Temp;Humidity;BMP_temperature;BMP_pressure;BME280_temperature;BME280_humidity;BME280_pressure;Samples;Min_cycle;Max_cycle;Signal;HPM_P1;HPM_P2
2023/10/22 00:00:08;;;;;;;;;12.25;11.75;;;;;-143.90;100.00;73952.63;5000956;27;101645;-75
2023/10/22 00:02:36;;;;;;;;;8.00;7.25;;;;;-143.90;100.00;73944.38;4965658;28;101999;-76
2023/10/22 00:05:06;;;;;;;;;7.00;6.00;;;;;-143.90;100.00;73946.44;5004045;27;102661;-77
2023/10/22 00:07:34;;;;;;;;;5.00;5.00;;;;;-143.90;100.00;73940.25;4993282;27;101566;-76
2023/10/22 00:10:01;;;;;;;;;11.00;8.50;;;;;-143.90;100.00;73950.56;4973902;27;101587;-75
2023/10/22 00:12:27;;;;;;;;;6.25;5.00;;;;;-143.90;100.00;73948.50;4997144;27;102574;-77
2023/10/22 00:14:54;;;;;;;;;5.75;5.00;;;;;-143.90;100.00;73948.50;5002350;27;103629;-76
2023/10/22 00:17:22;;;;;;;;;4.75;3.75;;;;;-143.90;100.00;73948.50;4999701;27;101774;-77
2023/10/22 00:19:49;;;;;;;;;6.00;4.75;;;;;-143.90;100.00;73948.50;4970804;28;102013;-76
2023/10/22 00:22:16;;;;;;;;;6.25;5.50;;;;;-143.90;100.00;73946.44;4998505;28;101571;-76
2023/10/22 00:24:44;;;;;;;;;3.00;3.00;;;;;-143.90;100.00;73950.56;4969626;28;104835;-77
2023/10/22 00:27:11;;;;;;;;;6.00;6.00;;;;;-143.90;100.00;73952.63;5001002;27;101647;-77
2023/10/22 00:29:37;;;;;;;;;9.25;9.25;;;;;-143.90;100.00;73958.84;4994973;28;101741;-76
2023/10/22 00:32:04;;;;;;;;;8.25;7.25;;;;;-143.90;100.00;73954.72;5005501;28;103459;-74
2023/10/22 00:34:31;;;;;;;;;12.25;11.00;;;;;-143.90;100.00;73960.91;4997760;27;103561;-76
2023/10/22 00:36:58;;;;;;;;;10.25;9.00;;;;;-143.90;100.00;73952.63;4993724;28;101743;-76
2023/10/22 00:39:24;;;;;;;;;7.50;7.00;;;;;-143.90;100.00;73950.56;4997050;28;102167;-76
2023/10/22 00:41:51;;;;;;;;;6.75;6.00;;;;;-143.90;100.00;73946.44;4995555;27;101674;-76
2023/10/22 00:44:18;;;;;;;;;8.75;7.00;;;;;-143.90;100.00;73952.63;5000084;27;103014;-75
2023/10/22 00:46:46;;;;;;;;;17.75;15.50;;;;;-143.90;100.00;73952.63;4987313;27;101517;-76
2023/10/22 00:49:12;;;;;;;;;15.00;14.75;;;;;-143.90;100.00;73952.63;4969425;28;101841;-76
2023/10/22 00:51:39;;;;;;;;;14.25;14.00;;;;;-143.90;100.00;73948.50;4991560;27;102539;-76
2023/10/22 00:54:06;;;;;;;;;10.75;10.50;;;;;-143.90;100.00;73948.50;4991431;27;104867;-74
2023/10/22 00:56:34;;;;;;;;;7.75;7.75;;;;;-143.90;100.00;73946.44;4996053;27;101754;-76
2023/10/22 00:59:02;;;;;;;;;6.50;5.25;;;;;-143.90;100.00;73946.44;4991615;27;101679;-77
2023/10/22 01:01:30;;;;;;;;;9.50;9.00;;;;;-143.90;100.00;73948.50;4994469;27;102044;-77
2023/10/22 01:03:58;;;;;;;;;10.75;8.50;;;;;-143.90;100.00;73948.50;4986625;27;103416;-76
2023/10/22 01:06:25;;;;;;;;;7.00;6.25;;;;;-143.90;100.00;73944.38;4985317;27;101951;-77
2023/10/22 01:08:55;;;;;;;;;4.50;3.50;;;;;-143.90;100.00;73950.56;4991820;27;101955;-77
2023/10/22 01:11:22;;;;;;;;;6.50;6.00;;;;;-143.90;100.00;73942.31;4996290;27;101561;-77
2023/10/22 01:13:48;;;;;;;;;11.00;10.25;;;;;-143.90;100.00;73944.38;4993126;27;103476;-76
2023/10/22 01:16:15;;;;;;;;;13.75;12.00;;;;;-143.90;100.00;73940.25;4998232;28;101741;-75
2023/10/22 01:18:42;;;;;;;;;15.00;11.50;;;;;-143.90;100.00;73936.09;4988828;28;101934;-74
2023/10/22 01:21:09;;;;;;;;;8.50;8.50;;;;;-143.90;100.00;73934.03;4979312;28;101861;-77
2023/10/22 01:23:37;;;;;;;;;5.25;4.75;;;;;-143.90;100.00;73931.97;4987462;27;107969;-75
2023/10/22 01:26:06;;;;;;;;;5.00;4.50;;;;;-143.90;100.00;73929.91;4985780;28;101560;-74
2023/10/22 01:28:34;;;;;;;;;12.75;12.75;;;;;-143.90;100.00;73942.31;4991461;27;102525;-76
2023/10/22 01:31:04;;;;;;;;;13.00;12.25;;;;;-143.90;100.00;73936.09;4989921;28;101674;-76
2023/10/22 01:33:32;;;;;;;;;9.00;8.00;;;;;-143.90;100.00;73919.56;4997983;27;103107;-76
2023/10/22 01:35:59;;;;;;;;;5.00;5.00;;;;;-143.90;100.00;73921.63;4987276;28;106247;-76
2023/10/22 01:38:26;;;;;;;;;8.50;5.75;;;;;-143.90;100.00;73911.31;4987375;28;102215;-77
2023/10/22 01:40:53;;;;;;;;;5.25;5.00;;;;;-143.90;100.00;73911.31;4991947;28;101926;-77
2023/10/22 01:43:19;;;;;;;;;4.00;4.00;;;;;-143.90;100.00;73909.25;4958804;28;102902;-76
2023/10/22 01:45:46;;;;;;;;;3.00;3.00;;;;;-143.90;100.00;73903.03;4996525;27;101775;-76
2023/10/22 01:48:13;;;;;;;;;2.50;2.50;;;;;-143.90;100.00;73907.16;4992856;28;101438;-75
2023/10/22 01:50:39;;;;;;;;;1.00;1.00;;;;;-143.90;100.00;73913.38;4999747;28;102132;-75
2023/10/22 01:53:07;;;;;;;;;2.00;1.00;;;;;-143.90;100.00;73903.03;4993293;28;103506;-75
2023/10/22 01:55:34;;;;;;;;;1.00;1.00;;;;;-143.90;100.00;73903.03;4998065;27;102708;-75
2023/10/22 01:58:00;;;;;;;;;0.50;0.00;;;;;-143.90;100.00;73898.91;4992403;27;101789;-77
2023/10/22 02:00:27;;;;;;;;;0.00;0.00;;;;;-143.90;100.00;73900.97;4991849;27;101640;-76
2023/10/22 02:02:54;;;;;;;;;0.00;0.00;;;;;-143.90;100.00;73896.84;4991666;27;103394;-76
2023/10/22 02:05:20;;;;;;;;;1.00;0.00;;;;;-143.90;100.00;73890.63;4961685;28;101686;-76
2023/10/22 02:07:47;;;;;;;;;0.00;0.00;;;;;-143.90;100.00;73898.91;4998788;28;101722;-76
2023/10/22 02:10:14;;;;;;;;;0.00;0.00;;;;;-143.90;100.00;73903.03;4988776;28;103210;-76
2023/10/22 02:12:41;;;;;;;;;0.00;0.00;;;;;-143.90;100.00;73894.78;4996990;28;103064;-76
2023/10/22 02:15:08;;;;;;;;;0.67;0.00;;;;;-143.90;100.00;73888.56;4992933;28;101663;-76
2023/10/22 02:17:34;;;;;;;;;0.00;0.00;;;;;-143.90;100.00;73878.25;4994009;27;105778;-76
2023/10/22 02:20:01;;;;;;;;;0.00;0.00;;;;;-143.90;100.00;73880.31;4995220;27;101906;-76
2023/10/22 02:22:28;;;;;;;;;0.00;0.00;;;;;-143.90;100.00;73882.38;4993087;27;104288;-77
2023/10/22 02:24:54;;;;;;;;;0.00;0.00;;;;;-143.90;100.00;73882.38;4998851;27;102134;-76
2023/10/22 02:27:21;;;;;;;;;0.00;0.00;;;;;-143.90;100.00;73880.31;4991987;27;101691;-76
2023/10/22 02:29:48;;;;;;;;;0.00;0.00;;;;;-143.90;100.00;73882.38;5001390;27;101779;-76
2023/10/22 02:32:15;;;;;;;;;0.00;0.00;;;;;-143.90;100.00;73890.63;4989606;28;103542;-76
2023/10/22 02:34:41;;;;;;;;;0.00;0.00;;;;;-143.90;100.00;73878.25;4998049;28;101663;-76
2023/10/22 02:37:08;;;;;;;;;0.00;0.00;;;;;-143.90;100.00;73878.25;4998380;27;101506;-77
2023/10/22 02:39:35;;;;;;;;;0.00;0.00;;;;;-143.90;100.00;73874.09;4997408;27;101702;-77
2023/10/22 02:42:01;;;;;;;;;0.00;0.00;;;;;-143.90;100.00;73880.31;4994967;28;102913;-77
2023/10/22 02:44:28;;;;;;;;;0.00;0.00;;;;;-143.90;100.00;73878.25;4992400;27;101825;-77
2023/10/22 02:46:55;;;;;;;;;1.75;1.00;;;;;-143.90;100.00;73880.31;4997729;27;102208;-77
2023/10/22 02:49:21;;;;;;;;;0.00;0.00;;;;;-143.90;100.00;73882.38;4992904;27;101755;-77
2023/10/22 02:51:48;;;;;;;;;1.00;1.00;;;;;-143.90;100.00;73869.97;5003547;27;103377;-76
2023/10/22 02:54:15;;;;;;;;;0.75;0.75;;;;;-143.90;100.00;73869.97;5001235;27;101968;-76
2023/10/22 02:56:42;;;;;;;;;1.33;1.33;;;;;-143.90;100.00;73876.16;5000699;27;101587;-76
2023/10/22 02:59:09;;;;;;;;;2.00;2.00;;;;;-143.90;100.00;73874.09;4999059;27;101644;-77
2023/10/22 03:01:36;;;;;;;;;1.75;1.75;;;;;-143.90;100.00;73874.09;4991998;28;110476;-76
2023/10/22 03:04:03;;;;;;;;;2.00;2.00;;;;;-143.90;100.00;73882.38;4994604;27;101921;-77
2023/10/22 03:06:30;;;;;;;;;4.00;4.00;;;;;-143.90;100.00;73894.78;4998935;27;101897;-76
2023/10/22 03:08:57;;;;;;;;;2.75;2.75;;;;;-143.90;100.00;73890.63;4999598;28;101895;-76
2023/10/22 03:11:24;;;;;;;;;1.00;1.00;;;;;-143.90;100.00;73882.38;4992908;28;103319;-76
2023/10/22 03:13:51;;;;;;;;;2.00;1.00;;;;;-143.90;100.00;73880.31;4993939;27;101623;-76
2023/10/22 03:16:18;;;;;;;;;1.25;1.00;;;;;-143.90;100.00;73867.91;4995134;27;101541;-76
2023/10/22 03:18:46;;;;;;;;;0.00;0.00;;;;;-143.90;100.00;73869.97;4997040;27;102227;-76
2023/10/22 03:21:16;;;;;;;;;0.00;0.00;;;;;-143.90;100.00;73869.97;4994354;28;103618;-76
2023/10/22 03:23:43;;;;;;;;;0.75;0.75;;;;;-143.90;100.00;73867.91;4992016;27;102461;-77
2023/10/22 03:26:15;;;;;;;;;0.00;0.00;;;;;-143.90;100.00;73867.91;5000739;27;102495;-76
2023/10/22 03:28:43;;;;;;;;;0.00;0.00;;;;;-143.90;100.00;73865.84;4980464;27;102696;-76
2023/10/22 03:31:11;;;;;;;;;0.00;0.00;;;;;-143.90;100.00;73861.69;5002628;27;103340;-75
2023/10/22 03:33:37;;;;;;;;;0.00;0.00;;;;;-143.90;100.00;73861.69;4997498;27;101480;-76
2023/10/22 03:36:05;;;;;;;;;0.00;0.00;;;;;-143.90;100.00;73865.84;5000334;28;101826;-77
2023/10/22 03:38:31;;;;;;;;;0.00;0.00;;;;;-143.90;100.00;73867.91;4993574;27;101905;-76
2023/10/22 03:41:03;;;;;;;;;1.25;1.00;;;;;-143.90;100.00;73869.97;4998811;27;103518;-75
2023/10/22 03:43:31;;;;;;;;;0.00;0.00;;;;;-143.90;100.00;73869.97;4987587;28;104935;-76
2023/10/22 03:45:59;;;;;;;;;2.50;1.00;;;;;-143.90;100.00;73878.25;4997957;27;101599;-76
2023/10/22 03:48:27;;;;;;;;;2.00;2.00;;;;;-143.90;100.00;73884.44;4998402;27;101920;-76
2023/10/22 03:50:55;;;;;;;;;2.00;1.75;;;;;-143.90;100.00;73878.25;4977388;28;104756;-75
2023/10/22 03:53:22;;;;;;;;;1.00;1.00;;;;;-143.90;100.00;73890.63;4997576;27;102827;-76
2023/10/22 03:55:49;;;;;;;;;1.00;1.00;;;;;-143.90;100.00;73880.31;4995912;28;101886;-76
2023/10/22 03:58:16;;;;;;;;;1.75;1.00;;;;;-143.90;100.00;73880.31;4999443;27;101985;-77
2023/10/22 04:00:43;;;;;;;;;1.00;1.00;;;;;-143.90;100.00;73878.25;4996487;27;103779;-76
2023/10/22 04:03:11;;;;;;;;;1.00;1.00;;;;;-143.90;100.00;73884.44;5000302;28;101761;-77
2023/10/22 04:05:38;;;;;;;;;0.00;0.00;;;;;-143.90;100.00;73884.44;4990251;28;101777;-76
2023/10/22 04:08:05;;;;;;;;;0.75;0.75;;;;;-143.90;100.00;73886.50;4997625;28;102000;-76
2023/10/22 04:10:31;;;;;;;;;1.00;0.00;;;;;-143.90;100.00;73890.63;4990712;27;103325;-75
2023/10/22 04:12:58;;;;;;;;;0.50;0.50;;;;;-143.90;100.00;73892.69;4993987;27;102495;-76
2023/10/22 04:15:24;;;;;;;;;1.00;1.00;;;;;-143.90;100.00;73892.69;4990460;28;101675;-76
2023/10/22 04:17:51;;;;;;;;;1.00;1.00;;;;;-143.90;100.00;73898.91;4995344;28;101632;-76
2023/10/22 04:20:18;;;;;;;;;2.00;1.00;;;;;-143.90;100.00;73903.03;4996420;28;103373;-75
2023/10/22 04:22:44;;;;;;;;;3.00;2.00;;;;;-143.90;100.00;73903.03;4995143;27;101858;-76
2023/10/22 04:25:13;;;;;;;;;1.00;1.00;;;;;-143.90;100.00;73898.91;4999198;27;102702;-76
2023/10/22 04:27:40;;;;;;;;;0.75;0.50;;;;;-143.90;100.00;73909.25;4974067;28;102758;-76
2023/10/22 04:30:07;;;;;;;;;1.00;1.00;;;;;-143.90;100.00;73907.16;4995717;28;108774;-75
2023/10/22 04:32:35;;;;;;;;;1.00;1.00;;;;;-143.90;100.00;73913.38;4991990;27;101868;-77
2023/10/22 04:35:03;;;;;;;;;1.00;0.75;;;;;-143.90;100.00;73911.31;5002050;27;101677;-77
2023/10/22 04:37:30;;;;;;;;;0.00;0.00;;;;;-143.90;100.00;73903.03;4988123;28;105329;-76
2023/10/22 04:39:57;;;;;;;;;2.00;1.00;;;;;-143.90;100.00;73909.25;5003147;27;103356;-76
2023/10/22 04:42:27;;;;;;;;;0.00;0.00;;;;;-143.90;100.00;73907.16;4992977;27;101737;-77
2023/10/22 04:44:54;;;;;;;;;1.75;1.75;;;;;-143.90;100.00;73911.31;4989197;27;101681;-77
2023/10/22 04:47:21;;;;;;;;;1.00;1.00;;;;;-143.90;100.00;73907.16;4994755;27;103391;-77
2023/10/22 04:49:51;;;;;;;;;1.00;1.00;;;;;-143.90;100.00;73913.38;4995063;27;103499;-76
2023/10/22 04:52:33;;;;;;;;;1.25;1.25;;;;;-143.90;100.00;73917.50;4987537;28;101753;-76
2023/10/22 04:55:01;;;;;;;;;1.00;1.00;;;;;-143.90;100.00;73915.44;4997921;28;102060;-77
2023/10/22 04:57:28;;;;;;;;;0.00;0.00;;;;;-143.90;100.00;73919.56;4972555;28;101682;-77
2023/10/22 04:59:55;;;;;;;;;1.00;1.00;;;;;-143.90;100.00;73921.63;4991490;28;103565;-75
2023/10/22 05:02:22;;;;;;;;;0.00;0.00;;;;;-143.90;100.00;73927.84;4993446;28;101834;-76
2023/10/22 05:04:51;;;;;;;;;3.25;2.75;;;;;-143.90;100.00;73929.91;4982797;28;101967;-76
2023/10/22 05:07:18;;;;;;;;;4.50;4.00;;;;;-143.90;100.00;73936.09;4994646;28;101813;-75
2023/10/22 05:09:44;;;;;;;;;4.25;3.50;;;;;-143.90;100.00;73925.78;5000498;27;102973;-76
2023/10/22 05:12:11;;;;;;;;;6.00;5.25;;;;;-143.90;100.00;73927.84;4993694;28;101966;-76
2023/10/22 05:14:38;;;;;;;;;5.00;4.00;;;;;-143.90;100.00;73927.84;5000283;27;101769;-76
2023/10/22 05:17:05;;;;;;;;;8.00;7.50;;;;;-143.90;100.00;73929.91;4988832;28;101901;-77
2023/10/22 05:19:32;;;;;;;;;7.00;7.00;;;;;-143.90;100.00;73917.50;5001739;27;103629;-76
2023/10/22 05:21:59;;;;;;;;;4.50;4.50;;;;;-143.90;100.00;73911.31;4989148;27;101708;-77
2023/10/22 05:24:26;;;;;;;;;3.00;2.50;;;;;-143.90;100.00;73907.16;4995949;27;101583;-77
2023/10/22 05:26:53;;;;;;;;;2.00;1.75;;;;;-143.90;100.00;73909.25;4995219;27;102453;-77
2023/10/22 05:29:20;;;;;;;;;1.00;1.00;;;;;-143.90;100.00;73915.44;4991351;28;103360;-77
2023/10/22 05:31:47;;;;;;;;;1.25;1.25;;;;;-143.90;100.00;73913.38;4990640;28;101581;-77
2023/10/22 05:34:14;;;;;;;;;1.25;1.25;;;;;-143.90;100.00;73919.56;5002206;28;101502;-77
2023/10/22 05:36:41;;;;;;;;;1.00;1.00;;;;;-143.90;100.00;73919.56;4996335;28;101618;-77
2023/10/22 05:39:08;;;;;;;;;0.00;0.00;;;;;-143.90;100.00;73925.78;5001050;27;108282;-77
2023/10/22 05:41:35;;;;;;;;;1.00;1.00;;;;;-143.90;100.00;73931.97;4993123;27;101663;-77
2023/10/22 05:44:03;;;;;;;;;0.00;0.00;;;;;-143.90;100.00;73936.09;4996661;28;101579;-77
2023/10/22 05:46:34;;;;;;;;;0.00;0.00;;;;;-143.90;100.00;73944.38;4998636;27;102010;-75
2023/10/22 05:49:07;;;;;;;;;3.00;3.00;;;;;-143.90;100.00;73946.44;4993429;28;104587;-76
2023/10/22 05:51:34;;;;;;;;;3.00;3.00;;;;;-143.90;100.00;73940.25;4968450;28;101847;-77
2023/10/22 05:54:03;;;;;;;;;4.75;4.25;;;;;-143.90;100.00;73942.31;4993224;27;101985;-76
2023/10/22 05:56:32;;;;;;;;;6.75;5.75;;;;;-143.90;100.00;73946.44;4993939;27;102762;-77
2023/10/22 05:59:01;;;;;;;;;4.50;3.00;;;;;-143.90;100.00;73942.31;4997668;27;103412;-77
2023/10/22 06:01:28;;;;;;;;;3.00;3.00;;;;;-143.90;100.00;73938.19;4996828;27;101792;-77
2023/10/22 06:03:55;;;;;;;;;3.00;3.00;;;;;-143.90;100.00;73940.25;4998131;27;101899;-77
2023/10/22 06:06:22;;;;;;;;;1.25;1.25;;;;;-143.90;100.00;73936.09;4992464;27;101881;-77
2023/10/22 06:08:49;;;;;;;;;1.50;1.00;;;;;-143.90;100.00;73936.09;4995848;27;103363;-76
2023/10/22 06:11:15;;;;;;;;;4.00;2.50;;;;;-143.90;100.00;73931.97;4988616;28;101617;-77
2023/10/22 06:13:42;;;;;;;;;3.00;2.75;;;;;-143.90;100.00;73927.84;4998182;27;101796;-76
2023/10/22 06:16:09;;;;;;;;;5.00;5.00;;;;;-143.90;100.00;73927.84;4974400;28;101823;-77
2023/10/22 06:18:37;;;;;;;;;13.00;9.75;;;;;-143.90;100.00;73938.19;4995984;27;103555;-77
2023/10/22 06:21:15;;;;;;;;;6.50;6.50;;;;;-143.90;100.00;73927.84;4989719;27;101852;-76
2023/10/22 06:23:42;;;;;;;;;5.50;5.00;;;;;-143.90;100.00;73925.78;4979269;28;101896;-75
2023/10/22 06:26:11;;;;;;;;;6.50;4.75;;;;;-143.90;100.00;73923.72;4988285;27;101853;-76
2023/10/22 06:28:39;;;;;;;;;3.00;2.25;;;;;-143.90;100.00;73921.63;4991750;27;103342;-76
2023/10/22 06:31:07;;;;;;;;;3.00;3.00;;;;;-143.90;100.00;73911.31;4994000;28;101999;-77
2023/10/22 06:33:35;;;;;;;;;3.50;2.50;;;;;-143.90;100.00;73907.16;4974895;28;101873;-76
2023/10/22 06:36:17;;;;;;;;;3.00;3.00;;;;;-143.90;100.00;73911.31;4996575;28;102132;-76
2023/10/22 06:38:45;;;;;;;;;3.25;3.25;;;;;-143.90;100.00;73907.16;4995574;28;108121;-76
2023/10/22 06:41:20;;;;;;;;;2.25;2.00;;;;;-143.90;100.00;73907.16;4991070;28;101774;-76
2023/10/22 06:43:47;;;;;;;;;5.25;5.00;;;;;-143.90;100.00;73907.16;4983233;28;102167;-76
2023/10/22 06:46:15;;;;;;;;;3.25;3.25;;;;;-143.90;100.00;73900.97;4993444;27;101930;-77
2023/10/22 06:48:42;;;;;;;;;4.25;4.25;;;;;-143.90;100.00;73898.91;4970986;28;108151;-77
2023/10/22 06:51:16;;;;;;;;;5.00;5.00;;;;;-143.90;100.00;73905.09;4991499;27;101780;-76
2023/10/22 06:53:46;;;;;;;;;5.00;5.00;;;;;-143.90;100.00;73896.84;4992439;27;101572;-77
2023/10/22 06:56:14;;;;;;;;;5.00;4.00;;;;;-143.90;100.00;73896.84;4994806;27;101923;-76
2023/10/22 06:58:40;;;;;;;;;6.00;4.75;;;;;-143.90;100.00;73890.63;4993896;27;103426;-77
2023/10/22 07:01:08;;;;;;;;;6.50;6.00;;;;;-143.90;100.00;73898.91;4990450;28;102188;-77
2023/10/22 07:03:46;;;;;;;;;8.50;6.50;;;;;-143.90;100.00;73903.03;4989193;28;101703;-76
2023/10/22 07:06:13;;;;;;;;;5.25;4.50;;;;;-143.90;100.00;73890.63;4976871;28;101900;-76
2023/10/22 07:08:40;;;;;;;;;6.75;5.50;;;;;-143.90;100.00;73890.63;4988973;28;103421;-77
2023/10/22 07:11:07;;;;;;;;;4.00;4.00;;;;;-143.90;100.00;73890.63;4987892;28;104773;-77
2023/10/22 07:13:34;;;;;;;;;4.00;3.00;;;;;-143.90;100.00;73884.44;4990415;27;101855;-77
2023/10/22 07:16:00;;;;;;;;;2.25;2.25;;;;;-143.90;100.00;73882.38;4991718;27;101642;-77
2023/10/22 07:18:27;;;;;;;;;4.50;4.00;;;;;-143.90;100.00;73882.38;4988492;28;103390;-76
2023/10/22 07:20:54;;;;;;;;;4.00;4.00;;;;;-143.90;100.00;73874.09;4989001;28;101727;-76
2023/10/22 07:23:21;;;;;;;;;2.00;2.00;;;;;-143.90;100.00;73861.69;4987157;28;101650;-76
2023/10/22 07:25:47;;;;;;;;;3.00;2.00;;;;;-143.90;100.00;73861.69;4992248;27;103174;-76
2023/10/22 07:28:16;;;;;;;;;3.25;3.00;;;;;-143.90;100.00;73865.84;4995086;27;102879;-77
2023/10/22 07:30:47;;;;;;;;;2.00;2.00;;;;;-143.90;100.00;73865.84;4998070;27;101551;-77
2023/10/22 07:33:16;;;;;;;;;3.50;3.00;;;;;-143.90;100.00;73857.56;4989097;28;102415;-77
2023/10/22 07:35:57;;;;;;;;;4.25;3.25;;;;;-143.90;100.00;73861.69;4971764;28;101777;-77
2023/10/22 07:38:24;;;;;;;;;3.00;2.00;;;;;-143.90;100.00;73851.38;4993189;28;108052;-77
2023/10/22 07:40:55;;;;;;;;;5.00;5.00;;;;;-143.90;100.00;73853.44;4994987;28;101936;-77
2023/10/22 07:43:25;;;;;;;;;1.50;1.50;;;;;-143.90;100.00;73843.09;4992622;28;101848;-76
2023/10/22 07:45:51;;;;;;;;;2.75;2.75;;;;;-143.90;100.00;73836.91;4982828;28;101748;-77
2023/10/22 07:48:19;;;;;;;;;1.00;1.00;;;;;-143.90;100.00;73841.03;4999986;28;103430;-77
2023/10/22 07:50:46;;;;;;;;;5.50;5.00;;;;;-143.90;100.00;73851.38;4995246;27;101681;-79
2023/10/22 07:53:14;;;;;;;;;5.50;4.50;;;;;-143.90;100.00;73855.50;4991328;27;102106;-76
2023/10/22 07:55:42;;;;;;;;;4.00;4.00;;;;;-143.90;100.00;73853.44;4993543;27;102736;-76
2023/10/22 07:58:09;;;;;;;;;7.00;7.00;;;;;-143.90;100.00;73849.31;4998397;27;103361;-76
2023/10/22 08:00:35;;;;;;;;;4.75;4.50;;;;;-143.90;100.00;73845.16;4989302;27;101945;-77
2023/10/22 08:03:02;;;;;;;;;6.00;6.00;;;;;-143.90;100.00;73845.16;4993168;28;102058;-77
2023/10/22 08:05:31;;;;;;;;;7.25;7.00;;;;;-143.90;100.00;73841.03;4996297;27;101833;-76
2023/10/22 08:07:58;;;;;;;;;4.50;4.50;;;;;-143.90;100.00;73838.97;4990709;28;104425;-77
2023/10/22 08:10:24;;;;;;;;;6.50;6.50;;;;;-143.90;100.00;73830.69;4999595;27;101793;-75
2023/10/22 08:12:51;;;;;;;;;4.50;4.50;;;;;-143.90;100.00;73830.69;4979979;28;101676;-77
2023/10/22 08:15:19;;;;;;;;;5.00;4.00;;;;;-143.90;100.00;73824.50;4978995;28;102265;-78
2023/10/22 08:17:46;;;;;;;;;4.75;4.00;;;;;-143.90;100.00;73820.38;4994510;27;103448;-77
2023/10/22 08:20:14;;;;;;;;;2.00;2.00;;;;;-143.90;100.00;73816.25;5002503;28;101735;-77
2023/10/22 08:22:41;;;;;;;;;3.25;3.25;;;;;-143.90;100.00;73810.03;4973279;28;101591;-77
2023/10/22 08:25:08;;;;;;;;;3.00;3.00;;;;;-143.90;100.00;73812.09;5002246;27;102219;-77
2023/10/22 08:27:35;;;;;;;;;4.50;4.00;;;;;-143.90;100.00;73799.69;4975284;28;103410;-77
2023/10/22 08:30:01;;;;;;;;;4.00;4.00;;;;;-143.90;100.00;73803.84;4993968;27;102523;-78
2023/10/22 08:32:28;;;;;;;;;4.00;4.00;;;;;-143.90;100.00;73795.56;4988434;27;101793;-78
2023/10/22 08:34:55;;;;;;;;;3.00;3.00;;;;;-143.90;100.00;73783.16;4999513;27;101899;-77
2023/10/22 08:37:22;;;;;;;;;3.75;3.75;;;;;-143.90;100.00;73776.97;4993945;28;103710;-76
2023/10/22 08:39:48;;;;;;;;;5.00;5.00;;;;;-143.90;100.00;73772.84;4985390;27;101763;-78
2023/10/22 08:42:20;;;;;;;;;3.67;1.67;;;;;-143.90;100.00;73770.78;4987510;28;102773;-78
2023/10/22 08:44:48;;;;;;;;;1.67;1.67;;;;;-143.90;100.00;73766.63;4996401;27;101831;-77
2023/10/22 08:47:16;;;;;;;;;2.00;1.67;;;;;-143.90;100.00;73764.56;4986987;27;104561;-77
2023/10/22 08:49:43;;;;;;;;;8.00;6.00;;;;;-143.90;100.00;73758.38;4968990;28;104456;-77
2023/10/22 08:52:10;;;;;;;;;17.00;14.00;;;;;-143.90;100.00;73774.91;4988146;27;102290;-76
2023/10/22 08:54:37;;;;;;;;;10.00;9.50;;;;;-143.90;100.00;73756.31;4988484;27;102344;-77
2023/10/22 08:57:05;;;;;;;;;13.25;10.25;;;;;-143.90;100.00;73745.97;4994263;28;103538;-76
2023/10/22 08:59:35;;;;;;;;;9.50;8.25;;;;;-143.90;100.00;73737.69;4999898;27;101600;-75
2023/10/22 09:02:11;;;;;;;;;6.00;5.25;;;;;-143.90;100.00;73733.56;4989083;28;101963;-75
2023/10/22 09:04:38;;;;;;;;;5.00;5.00;;;;;-143.90;100.00;73733.56;4978120;27;102081;-76
2023/10/22 09:07:06;;;;;;;;;5.50;4.00;;;;;-143.90;100.00;73745.97;4994269;28;103587;-77
2023/10/22 09:09:38;;;;;;;;;3.00;3.00;;;;;-143.90;100.00;73735.63;4979360;28;101830;-76
2023/10/22 09:12:12;;;;;;;;;2.67;2.67;;;;;-143.90;100.00;73735.63;4991981;28;101630;-77
2023/10/22 09:14:43;;;;;;;;;6.50;6.50;;;;;-143.90;100.00;73743.91;4996177;28;102096;-77
2023/10/22 09:17:19;;;;;;;;;4.00;4.00;;;;;-143.90;100.00;73748.03;4991381;28;103464;-77
2023/10/22 09:19:47;;;;;;;;;7.75;6.75;;;;;-143.90;100.00;73752.16;4997205;27;102075;-77
2023/10/22 09:22:21;;;;;;;;;5.00;5.00;;;;;-143.90;100.00;73752.16;4990407;28;101774;-76
2023/10/22 09:24:50;;;;;;;;;5.75;5.00;;;;;-143.90;100.00;73754.25;4998256;27;102018;-75
2023/10/22 09:27:24;;;;;;;;;5.00;4.33;;;;;-143.90;100.00;73756.31;4991124;28;103513;-77
2023/10/22 09:29:52;;;;;;;;;4.00;4.00;;;;;-143.90;100.00;73760.44;4991229;28;101714;-77
2023/10/22 09:32:20;;;;;;;;;3.33;2.67;;;;;-143.90;100.00;73768.69;4994970;28;101949;-77
2023/10/22 09:34:47;;;;;;;;;5.50;5.50;;;;;-143.90;100.00;73774.91;4964932;28;102216;-76
2023/10/22 09:37:14;;;;;;;;;7.00;6.00;;;;;-143.90;100.00;73774.91;4992441;28;103552;-76
2023/10/22 09:39:43;;;;;;;;;4.50;4.50;;;;;-143.90;100.00;73772.84;4992721;27;103191;-76
2023/10/22 09:42:14;;;;;;;;;5.00;5.00;;;;;-143.90;100.00;73768.69;4986110;28;101875;-76
2023/10/22 09:44:44;;;;;;;;;4.75;4.50;;;;;-143.90;100.00;73772.84;4990755;27;103429;-77
2023/10/22 09:47:22;;;;;;;;;6.33;5.33;;;;;-143.90;100.00;73770.78;4985524;28;103550;-77
2023/10/22 09:49:52;;;;;;;;;5.00;4.00;;;;;-143.90;100.00;73770.78;4991635;28;102007;-77
2023/10/22 09:52:23;;;;;;;;;5.75;4.25;;;;;-143.90;100.00;73768.69;4988039;28;101911;-77
2023/10/22 09:54:54;;;;;;;;;4.67;4.00;;;;;-143.90;100.00;73756.31;4991936;27;102523;-77
2023/10/22 09:57:29;;;;;;;;;4.25;4.25;;;;;-143.90;100.00;73750.09;4984708;28;107771;-77
2023/10/22 10:00:01;;;;;;;;;4.33;3.33;;;;;-143.90;100.00;73743.91;4989327;27;102023;-77
2023/10/22 10:02:29;;;;;;;;;5.75;5.00;;;;;-143.90;100.00;73739.78;4980512;27;101879;-76
2023/10/22 10:04:56;;;;;;;;;7.25;6.00;;;;;-143.90;100.00;73743.91;4994716;27;101942;-76
2023/10/22 10:07:25;;;;;;;;;5.50;5.00;;;;;-143.90;100.00;73739.78;4986319;28;103353;-77
2023/10/22 10:09:55;;;;;;;;;5.00;4.25;;;;;-143.90;100.00;73743.91;4993377;27;101922;-76
2023/10/22 10:12:24;;;;;;;;;5.00;4.50;;;;;-143.90;100.00;73743.91;4988072;28;101629;-77
2023/10/22 10:14:51;;;;;;;;;6.25;6.00;;;;;-143.90;100.00;73745.97;4989771;28;101656;-77
2023/10/22 10:17:19;;;;;;;;;4.00;4.00;;;;;-143.90;100.00;73737.69;4989059;28;104477;-76
2023/10/22 10:19:47;;;;;;;;;6.00;5.00;;;;;-143.90;100.00;73745.97;4998691;27;101923;-76
2023/10/22 10:22:38;;;;;;;;;6.00;4.00;;;;;-143.90;100.00;73739.78;4990828;28;101913;-76
2023/10/22 10:25:30;;;;;;;;;5.00;5.00;;;;;-143.90;100.00;73739.78;4993656;28;101949;-76
2023/10/22 10:28:06;;;;;;;;;5.33;5.33;;;;;-143.90;100.00;73737.69;4983924;28;107172;-77
2023/10/22 10:30:33;;;;;;;;;8.75;8.25;;;;;-143.90;100.00;73770.78;4990902;28;101822;-77
2023/10/22 10:33:00;;;;;;;;;8.00;7.00;;;;;-143.90;100.00;73768.69;4985988;27;102003;-76
2023/10/22 10:35:47;;;;;;;;;5.00;5.00;;;;;-143.90;100.00;73754.25;4986785;27;101707;-77
2023/10/22 10:38:15;;;;;;;;;7.00;6.00;;;;;-143.90;100.00;73776.97;4990005;27;103186;-78
2023/10/22 10:40:51;;;;;;;;;5.00;5.00;;;;;-143.90;100.00;73766.63;4982078;27;101919;-77
2023/10/22 10:43:20;;;;;;;;;8.50;5.75;;;;;-143.90;100.00;73762.50;4985954;28;101635;-76
2023/10/22 10:46:26;;;;;;;;;6.00;6.00;;;;;-143.90;100.00;73754.25;4987011;28;101904;-76
2023/10/22 10:48:56;;;;;;;;;7.00;6.00;;;;;-143.90;100.00;73756.31;4990777;28;107912;-77
2023/10/22 10:51:24;;;;;;;;;5.33;4.33;;;;;-143.90;100.00;73745.97;4996316;28;101580;-77
2023/10/22 10:54:00;;;;;;;;;5.67;4.00;;;;;-143.90;100.00;73731.50;4980890;28;101845;-78
2023/10/22 10:56:47;;;;;;;;;4.00;4.00;;;;;-143.90;100.00;73714.97;4987151;27;101859;-76
2023/10/22 10:59:40;;;;;;;;;5.67;5.00;;;;;-143.90;100.00;73721.16;4985510;27;103814;-76
2023/10/22 11:02:13;;;;;;;;;5.25;5.25;;;;;-143.90;100.00;73719.09;4983250;28;101800;-76
2023/10/22 11:04:45;;;;;;;;;4.33;4.00;;;;;-143.90;100.00;73721.16;4992476;27;101858;-77